sensor_id;sensor_type;location;lat;lon;timestamp;P1;durP1;ratioP1;P2;durP2;ratioP2
30247;SDS011;17063;50.892;4.702;2022-10-16T00:01:18;2.73;;;0.80;;
30247;SDS011;17063;50.892;4.702;2022-10-16T00:03:47;2.33;;;1.00;;
30247;SDS011;17063;50.892;4.702;2022-10-16T00:06:15;5.10;;;1.10;;
30247;SDS011;17063;50.892;4.702;2022-10-16T00:08:43;2.30;;;0.87;;
30247;SDS011;17063;50.892;4.702;2022-10-16T00:11:21;0.87;;;0.73;;
30247;SDS011;17063;50.892;4.702;2022-10-16T00:13:50;3.13;;;0.80;;
30247;SDS011;17063;50.892;4.702;2022-10-16T00:16:19;1.53;;;0.87;;
30247;SDS011;17063;50.892;4.702;2022-10-16T00:18:46;1.13;;;0.70;;
30247;SDS011;17063;50.892;4.702;2022-10-16T00:21:17;1.13;;;0.90;;
30247;SDS011;17063;50.892;4.702;2022-10-16T00:23:46;2.23;;;0.80;;
30247;SDS011;17063;50.892;4.702;2022-10-16T00:26:14;0.80;;;0.80;;
30247;SDS011;17063;50.892;4.702;2022-10-16T00:28:42;2.67;;;1.20;;
30247;SDS011;17063;50.892;4.702;2022-10-16T00:31:13;2.50;;;1.00;;
30247;SDS011;17063;50.892;4.702;2022-10-16T00:33:40;1.73;;;0.93;;
30247;SDS011;17063;50.892;4.702;2022-10-16T00:36:07;0.80;;;0.60;;
30247;SDS011;17063;50.892;4.702;2022-10-16T00:38:37;2.13;;;0.73;;
30247;SDS011;17063;50.892;4.702;2022-10-16T00:41:05;3.03;;;1.00;;
30247;SDS011;17063;50.892;4.702;2022-10-16T00:46:03;0.80;;;0.80;;
30247;SDS011;17063;50.892;4.702;2022-10-16T00:48:34;3.13;;;0.90;;
30247;SDS011;17063;50.892;4.702;2022-10-16T00:51:01;1.63;;;0.73;;
30247;SDS011;17063;50.892;4.702;2022-10-16T00:53:27;0.60;;;0.60;;
30247;SDS011;17063;50.892;4.702;2022-10-16T00:55:57;0.87;;;0.83;;
30247;SDS011;17063;50.892;4.702;2022-10-16T00:58:24;2.00;;;0.87;;
30247;SDS011;17063;50.892;4.702;2022-10-16T01:00:51;0.80;;;0.80;;
30247;SDS011;17063;50.892;4.702;2022-10-16T01:03:31;0.83;;;0.60;;
30247;SDS011;17063;50.892;4.702;2022-10-16T01:06:04;0.97;;;0.90;;
30247;SDS011;17063;50.892;4.702;2022-10-16T01:08:47;2.67;;;0.90;;
30247;SDS011;17063;50.892;4.702;2022-10-16T01:11:28;2.30;;;0.60;;
30247;SDS011;17063;50.892;4.702;2022-10-16T01:14:32;2.60;;;0.90;;
30247;SDS011;17063;50.892;4.702;2022-10-16T01:17:34;2.60;;;0.80;;
30247;SDS011;17063;50.892;4.702;2022-10-16T01:20:16;1.37;;;0.97;;
30247;SDS011;17063;50.892;4.702;2022-10-16T01:22:53;1.47;;;0.70;;
30247;SDS011;17063;50.892;4.702;2022-10-16T01:25:28;0.93;;;0.90;;
30247;SDS011;17063;50.892;4.702;2022-10-16T01:28:04;0.60;;;0.60;;
30247;SDS011;17063;50.892;4.702;2022-10-16T01:30:33;1.63;;;0.93;;
30247;SDS011;17063;50.892;4.702;2022-10-16T01:33:19;2.77;;;0.77;;
30247;SDS011;17063;50.892;4.702;2022-10-16T01:35:54;2.50;;;0.90;;
30247;SDS011;17063;50.892;4.702;2022-10-16T01:38:32;4.30;;;0.90;;
30247;SDS011;17063;50.892;4.702;2022-10-16T01:41:04;1.93;;;0.83;;
30247;SDS011;17063;50.892;4.702;2022-10-16T01:46:33;2.10;;;1.10;;
30247;SDS011;17063;50.892;4.702;2022-10-16T01:49:02;0.80;;;0.80;;
30247;SDS011;17063;50.892;4.702;2022-10-16T01:51:30;1.53;;;0.63;;
30247;SDS011;17063;50.892;4.702;2022-10-16T01:53:57;1.13;;;0.80;;
30247;SDS011;17063;50.892;4.702;2022-10-16T01:56:29;4.20;;;0.97;;
30247;SDS011;17063;50.892;4.702;2022-10-16T02:01:34;1.20;;;0.70;;
30247;SDS011;17063;50.892;4.702;2022-10-16T02:04:04;1.97;;;0.90;;
30247;SDS011;17063;50.892;4.702;2022-10-16T02:06:36;0.97;;;0.80;;
30247;SDS011;17063;50.892;4.702;2022-10-16T02:09:03;0.70;;;0.70;;
30247;SDS011;17063;50.892;4.702;2022-10-16T02:11:30;5.23;;;1.00;;
30247;SDS011;17063;50.892;4.702;2022-10-16T02:14:01;7.80;;;1.20;;
30247;SDS011;17063;50.892;4.702;2022-10-16T02:19:02;1.80;;;0.80;;
30247;SDS011;17063;50.892;4.702;2022-10-16T02:21:30;2.47;;;0.87;;
30247;SDS011;17063;50.892;4.702;2022-10-16T02:26:49;0.73;;;0.73;;
30247;SDS011;17063;50.892;4.702;2022-10-16T02:29:38;2.47;;;0.80;;
30247;SDS011;17063;50.892;4.702;2022-10-16T02:32:07;1.60;;;0.83;;
30247;SDS011;17063;50.892;4.702;2022-10-16T02:34:34;2.77;;;1.10;;
30247;SDS011;17063;50.892;4.702;2022-10-16T02:37:02;4.50;;;0.90;;
30247;SDS011;17063;50.892;4.702;2022-10-16T02:39:30;3.73;;;1.20;;
30247;SDS011;17063;50.892;4.702;2022-10-16T02:41:57;1.10;;;1.00;;
30247;SDS011;17063;50.892;4.702;2022-10-16T02:44:24;2.10;;;1.00;;
30247;SDS011;17063;50.892;4.702;2022-10-16T02:46:51;2.67;;;0.80;;
30247;SDS011;17063;50.892;4.702;2022-10-16T02:49:17;1.70;;;0.80;;
30247;SDS011;17063;50.892;4.702;2022-10-16T02:51:45;5.07;;;1.20;;
30247;SDS011;17063;50.892;4.702;2022-10-16T02:54:11;0.97;;;0.90;;
30247;SDS011;17063;50.892;4.702;2022-10-16T02:56:39;1.30;;;1.10;;
30247;SDS011;17063;50.892;4.702;2022-10-16T02:59:06;0.80;;;0.80;;
30247;SDS011;17063;50.892;4.702;2022-10-16T03:01:33;1.93;;;0.80;;
30247;SDS011;17063;50.892;4.702;2022-10-16T03:04:00;5.10;;;1.00;;
30247;SDS011;17063;50.892;4.702;2022-10-16T03:06:27;3.93;;;1.20;;
30247;SDS011;17063;50.892;4.702;2022-10-16T03:08:54;2.93;;;1.10;;
30247;SDS011;17063;50.892;4.702;2022-10-16T03:11:20;2.27;;;1.07;;
30247;SDS011;17063;50.892;4.702;2022-10-16T03:13:47;2.70;;;1.17;;
30247;SDS011;17063;50.892;4.702;2022-10-16T03:16:14;3.30;;;0.93;;
30247;SDS011;17063;50.892;4.702;2022-10-16T03:18:41;5.97;;;1.10;;
30247;SDS011;17063;50.892;4.702;2022-10-16T03:21:07;1.97;;;1.10;;
30247;SDS011;17063;50.892;4.702;2022-10-16T03:23:34;1.00;;;1.00;;
30247;SDS011;17063;50.892;4.702;2022-10-16T03:26:01;3.33;;;1.17;;
30247;SDS011;17063;50.892;4.702;2022-10-16T03:28:28;2.53;;;1.10;;
30247;SDS011;17063;50.892;4.702;2022-10-16T03:30:54;3.53;;;0.90;;
30247;SDS011;17063;50.892;4.702;2022-10-16T03:33:21;1.30;;;1.00;;
30247;SDS011;17063;50.892;4.702;2022-10-16T03:35:52;1.20;;;1.10;;
30247;SDS011;17063;50.892;4.702;2022-10-16T03:38:20;1.40;;;1.03;;
30247;SDS011;17063;50.892;4.702;2022-10-16T03:40:47;2.83;;;1.00;;
30247;SDS011;17063;50.892;4.702;2022-10-16T03:43:14;2.10;;;0.73;;
30247;SDS011;17063;50.892;4.702;2022-10-16T03:45:41;1.67;;;1.00;;
30247;SDS011;17063;50.892;4.702;2022-10-16T03:48:08;3.60;;;1.07;;
30247;SDS011;17063;50.892;4.702;2022-10-16T03:50:35;4.17;;;1.30;;
30247;SDS011;17063;50.892;4.702;2022-10-16T03:53:02;5.70;;;1.13;;
30247;SDS011;17063;50.892;4.702;2022-10-16T03:55:29;1.20;;;1.00;;
30247;SDS011;17063;50.892;4.702;2022-10-16T03:57:56;1.63;;;1.20;;
30247;SDS011;17063;50.892;4.702;2022-10-16T04:00:23;1.17;;;1.07;;
30247;SDS011;17063;50.892;4.702;2022-10-16T04:02:49;1.20;;;0.93;;
30247;SDS011;17063;50.892;4.702;2022-10-16T04:05:16;1.10;;;1.00;;
30247;SDS011;17063;50.892;4.702;2022-10-16T04:07:43;1.43;;;1.00;;
30247;SDS011;17063;50.892;4.702;2022-10-16T04:10:10;1.27;;;0.90;;
30247;SDS011;17063;50.892;4.702;2022-10-16T04:12:36;1.33;;;1.23;;
30247;SDS011;17063;50.892;4.702;2022-10-16T04:15:03;5.27;;;1.10;;
30247;SDS011;17063;50.892;4.702;2022-10-16T04:17:30;2.47;;;1.20;;
30247;SDS011;17063;50.892;4.702;2022-10-16T04:19:57;3.33;;;0.93;;
30247;SDS011;17063;50.892;4.702;2022-10-16T04:22:24;1.80;;;1.30;;
30247;SDS011;17063;50.892;4.702;2022-10-16T04:24:55;2.57;;;1.30;;
30247;SDS011;17063;50.892;4.702;2022-10-16T04:27:22;5.23;;;1.20;;
30247;SDS011;17063;50.892;4.702;2022-10-16T04:29:49;2.20;;;1.00;;
30247;SDS011;17063;50.892;4.702;2022-10-16T04:32:16;0.90;;;0.90;;
30247;SDS011;17063;50.892;4.702;2022-10-16T04:34:43;5.60;;;1.00;;
30247;SDS011;17063;50.892;4.702;2022-10-16T04:37:10;1.23;;;1.10;;
30247;SDS011;17063;50.892;4.702;2022-10-16T04:39:36;1.70;;;1.10;;
30247;SDS011;17063;50.892;4.702;2022-10-16T04:42:03;1.70;;;1.20;;
30247;SDS011;17063;50.892;4.702;2022-10-16T04:44:30;1.40;;;1.30;;
30247;SDS011;17063;50.892;4.702;2022-10-16T04:46:57;5.30;;;1.17;;
30247;SDS011;17063;50.892;4.702;2022-10-16T04:49:23;1.43;;;1.30;;
30247;SDS011;17063;50.892;4.702;2022-10-16T04:51:50;1.33;;;1.10;;
30247;SDS011;17063;50.892;4.702;2022-10-16T04:54:17;1.60;;;1.00;;
30247;SDS011;17063;50.892;4.702;2022-10-16T04:56:43;1.70;;;1.10;;
30247;SDS011;17063;50.892;4.702;2022-10-16T04:59:14;1.90;;;1.40;;
30247;SDS011;17063;50.892;4.702;2022-10-16T05:06:00;3.00;;;1.20;;
30247;SDS011;17063;50.892;4.702;2022-10-16T05:08:26;1.83;;;1.23;;
30247;SDS011;17063;50.892;4.702;2022-10-16T05:10:53;1.33;;;1.27;;
30247;SDS011;17063;50.892;4.702;2022-10-16T05:13:20;5.97;;;1.40;;
30247;SDS011;17063;50.892;4.702;2022-10-16T05:15:47;2.80;;;1.70;;
30247;SDS011;17063;50.892;4.702;2022-10-16T05:18:15;2.73;;;1.33;;
30247;SDS011;17063;50.892;4.702;2022-10-16T05:20:42;1.40;;;1.13;;
30247;SDS011;17063;50.892;4.702;2022-10-16T05:23:09;1.97;;;1.10;;
30247;SDS011;17063;50.892;4.702;2022-10-16T05:25:36;2.07;;;1.50;;
30247;SDS011;17063;50.892;4.702;2022-10-16T05:28:03;4.80;;;1.50;;
30247;SDS011;17063;50.892;4.702;2022-10-16T05:30:30;2.23;;;1.23;;
30247;SDS011;17063;50.892;4.702;2022-10-16T05:32:57;3.77;;;1.37;;
30247;SDS011;17063;50.892;4.702;2022-10-16T05:35:24;2.83;;;1.60;;
30247;SDS011;17063;50.892;4.702;2022-10-16T05:37:51;5.43;;;1.50;;
30247;SDS011;17063;50.892;4.702;2022-10-16T05:40:19;4.27;;;1.50;;
30247;SDS011;17063;50.892;4.702;2022-10-16T05:42:54;2.30;;;1.30;;
30247;SDS011;17063;50.892;4.702;2022-10-16T05:45:21;3.10;;;1.43;;
30247;SDS011;17063;50.892;4.702;2022-10-16T05:47:48;2.77;;;1.40;;
30247;SDS011;17063;50.892;4.702;2022-10-16T05:50:15;3.57;;;1.50;;
30247;SDS011;17063;50.892;4.702;2022-10-16T05:56:41;1.60;;;1.50;;
30247;SDS011;17063;50.892;4.702;2022-10-16T05:59:08;2.87;;;1.50;;
30247;SDS011;17063;50.892;4.702;2022-10-16T06:01:34;1.87;;;1.60;;
30247;SDS011;17063;50.892;4.702;2022-10-16T06:04:02;5.63;;;1.50;;
30247;SDS011;17063;50.892;4.702;2022-10-16T06:06:28;3.77;;;1.40;;
30247;SDS011;17063;50.892;4.702;2022-10-16T06:08:56;3.00;;;1.57;;
30247;SDS011;17063;50.892;4.702;2022-10-16T06:11:24;2.27;;;1.40;;
30247;SDS011;17063;50.892;4.702;2022-10-16T06:13:53;4.40;;;2.07;;
30247;SDS011;17063;50.892;4.702;2022-10-16T06:16:23;2.60;;;1.73;;
30247;SDS011;17063;50.892;4.702;2022-10-16T06:18:51;5.87;;;1.47;;
30247;SDS011;17063;50.892;4.702;2022-10-16T06:21:20;4.00;;;1.27;;
30247;SDS011;17063;50.892;4.702;2022-10-16T06:23:47;3.27;;;1.40;;
30247;SDS011;17063;50.892;4.702;2022-10-16T06:26:16;5.10;;;1.60;;
30247;SDS011;17063;50.892;4.702;2022-10-16T06:28:44;1.83;;;1.20;;
30247;SDS011;17063;50.892;4.702;2022-10-16T06:31:11;4.90;;;1.53;;
30247;SDS011;17063;50.892;4.702;2022-10-16T06:33:39;4.33;;;1.60;;
30247;SDS011;17063;50.892;4.702;2022-10-16T06:36:08;8.67;;;1.60;;
30247;SDS011;17063;50.892;4.702;2022-10-16T06:38:36;4.57;;;1.60;;
30247;SDS011;17063;50.892;4.702;2022-10-16T06:41:04;2.47;;;1.20;;
30247;SDS011;17063;50.892;4.702;2022-10-16T06:43:32;2.87;;;1.73;;
30247;SDS011;17063;50.892;4.702;2022-10-16T06:46:02;2.43;;;1.50;;
30247;SDS011;17063;50.892;4.702;2022-10-16T06:48:30;1.50;;;1.40;;
30247;SDS011;17063;50.892;4.702;2022-10-16T06:51:02;1.70;;;1.60;;
30247;SDS011;17063;50.892;4.702;2022-10-16T06:53:34;6.60;;;1.83;;
30247;SDS011;17063;50.892;4.702;2022-10-16T06:56:23;2.07;;;1.47;;
30247;SDS011;17063;50.892;4.702;2022-10-16T06:58:52;4.27;;;1.70;;
30247;SDS011;17063;50.892;4.702;2022-10-16T07:01:20;3.13;;;1.90;;
30247;SDS011;17063;50.892;4.702;2022-10-16T07:03:49;2.40;;;1.60;;
30247;SDS011;17063;50.892;4.702;2022-10-16T07:06:17;3.77;;;1.73;;
30247;SDS011;17063;50.892;4.702;2022-10-16T07:08:46;2.90;;;1.60;;
30247;SDS011;17063;50.892;4.702;2022-10-16T07:11:15;3.47;;;1.57;;
30247;SDS011;17063;50.892;4.702;2022-10-16T07:13:44;3.83;;;2.00;;
30247;SDS011;17063;50.892;4.702;2022-10-16T07:19:12;3.23;;;1.50;;
30247;SDS011;17063;50.892;4.702;2022-10-16T07:21:43;2.93;;;1.77;;
30247;SDS011;17063;50.892;4.702;2022-10-16T07:24:11;3.03;;;1.70;;
30247;SDS011;17063;50.892;4.702;2022-10-16T07:26:43;1.57;;;1.47;;
30247;SDS011;17063;50.892;4.702;2022-10-16T07:29:14;1.60;;;1.50;;
30247;SDS011;17063;50.892;4.702;2022-10-16T07:31:42;1.70;;;1.60;;
30247;SDS011;17063;50.892;4.702;2022-10-16T07:34:10;4.87;;;1.50;;
30247;SDS011;17063;50.892;4.702;2022-10-16T07:36:37;2.67;;;1.63;;
30247;SDS011;17063;50.892;4.702;2022-10-16T07:39:04;2.33;;;1.43;;
30247;SDS011;17063;50.892;4.702;2022-10-16T07:41:31;1.87;;;1.40;;
30247;SDS011;17063;50.892;4.702;2022-10-16T07:44:02;6.60;;;1.70;;
30247;SDS011;17063;50.892;4.702;2022-10-16T07:46:30;1.40;;;1.30;;
30247;SDS011;17063;50.892;4.702;2022-10-16T07:48:58;2.60;;;1.30;;
30247;SDS011;17063;50.892;4.702;2022-10-16T07:51:27;2.83;;;1.10;;
30247;SDS011;17063;50.892;4.702;2022-10-16T07:53:54;3.93;;;1.00;;
30247;SDS011;17063;50.892;4.702;2022-10-16T07:56:21;3.43;;;1.10;;
30247;SDS011;17063;50.892;4.702;2022-10-16T07:58:49;6.23;;;1.47;;
30247;SDS011;17063;50.892;4.702;2022-10-16T08:01:17;2.23;;;1.07;;
30247;SDS011;17063;50.892;4.702;2022-10-16T08:03:46;3.53;;;1.37;;
30247;SDS011;17063;50.892;4.702;2022-10-16T08:06:14;1.80;;;1.10;;
30247;SDS011;17063;50.892;4.702;2022-10-16T08:08:42;5.20;;;1.30;;
30247;SDS011;17063;50.892;4.702;2022-10-16T08:11:09;2.23;;;1.30;;
30247;SDS011;17063;50.892;4.702;2022-10-16T08:13:36;2.90;;;1.40;;
30247;SDS011;17063;50.892;4.702;2022-10-16T08:16:03;5.63;;;1.20;;
30247;SDS011;17063;50.892;4.702;2022-10-16T08:18:34;1.70;;;1.30;;
30247;SDS011;17063;50.892;4.702;2022-10-16T08:21:02;2.23;;;1.10;;
30247;SDS011;17063;50.892;4.702;2022-10-16T08:23:31;2.83;;;1.60;;
30247;SDS011;17063;50.892;4.702;2022-10-16T08:26:06;4.27;;;1.20;;
30247;SDS011;17063;50.892;4.702;2022-10-16T08:28:34;1.90;;;1.20;;
30247;SDS011;17063;50.892;4.702;2022-10-16T08:31:05;5.00;;;1.50;;
30247;SDS011;17063;50.892;4.702;2022-10-16T08:33:37;4.40;;;1.63;;
30247;SDS011;17063;50.892;4.702;2022-10-16T08:36:05;2.50;;;1.30;;
30247;SDS011;17063;50.892;4.702;2022-10-16T08:38:32;4.37;;;1.20;;
30247;SDS011;17063;50.892;4.702;2022-10-16T08:44:45;4.33;;;1.20;;
30247;SDS011;17063;50.892;4.702;2022-10-16T08:50:24;3.87;;;1.20;;
30247;SDS011;17063;50.892;4.702;2022-10-16T08:52:55;4.07;;;1.30;;
30247;SDS011;17063;50.892;4.702;2022-10-16T08:58:00;9.83;;;1.80;;
30247;SDS011;17063;50.892;4.702;2022-10-16T09:00:27;5.03;;;1.00;;
30247;SDS011;17063;50.892;4.702;2022-10-16T09:02:59;2.57;;;1.10;;
30247;SDS011;17063;50.892;4.702;2022-10-16T09:08:21;3.23;;;0.83;;
30247;SDS011;17063;50.892;4.702;2022-10-16T09:16:19;8.57;;;1.10;;
30247;SDS011;17063;50.892;4.702;2022-10-16T09:21:42;5.40;;;1.20;;
30247;SDS011;17063;50.892;4.702;2022-10-16T09:24:17;5.80;;;1.03;;
30247;SDS011;17063;50.892;4.702;2022-10-16T09:26:52;3.30;;;1.10;;
30247;SDS011;17063;50.892;4.702;2022-10-16T09:29:19;3.27;;;0.87;;
30247;SDS011;17063;50.892;4.702;2022-10-16T09:31:47;3.13;;;1.20;;
30247;SDS011;17063;50.892;4.702;2022-10-16T09:34:20;4.50;;;1.00;;
30247;SDS011;17063;50.892;4.702;2022-10-16T09:36:55;4.53;;;1.30;;
30247;SDS011;17063;50.892;4.702;2022-10-16T09:39:22;4.87;;;1.40;;
30247;SDS011;17063;50.892;4.702;2022-10-16T09:41:49;2.97;;;0.97;;
30247;SDS011;17063;50.892;4.702;2022-10-16T09:49:56;5.93;;;1.30;;
30247;SDS011;17063;50.892;4.702;2022-10-16T09:52:28;2.47;;;1.00;;
30247;SDS011;17063;50.892;4.702;2022-10-16T09:54:58;3.07;;;1.40;;
30247;SDS011;17063;50.892;4.702;2022-10-16T09:57:27;3.87;;;1.20;;
30247;SDS011;17063;50.892;4.702;2022-10-16T09:59:56;4.10;;;1.13;;
30247;SDS011;17063;50.892;4.702;2022-10-16T10:02:31;2.17;;;0.93;;
30247;SDS011;17063;50.892;4.702;2022-10-16T10:05:01;3.47;;;1.00;;
30247;SDS011;17063;50.892;4.702;2022-10-16T10:07:32;6.47;;;1.43;;
30247;SDS011;17063;50.892;4.702;2022-10-16T10:10:01;2.87;;;1.00;;
30247;SDS011;17063;50.892;4.702;2022-10-16T10:12:30;8.50;;;1.17;;
30247;SDS011;17063;50.892;4.702;2022-10-16T10:15:07;3.47;;;1.13;;
30247;SDS011;17063;50.892;4.702;2022-10-16T10:17:47;3.83;;;1.23;;
30247;SDS011;17063;50.892;4.702;2022-10-16T10:22:54;6.60;;;1.00;;
30247;SDS011;17063;50.892;4.702;2022-10-16T10:36:33;5.57;;;1.13;;
30247;SDS011;17063;50.892;4.702;2022-10-16T10:50:25;5.43;;;1.00;;
30247;SDS011;17063;50.892;4.702;2022-10-16T10:55:53;2.97;;;0.87;;
30247;SDS011;17063;50.892;4.702;2022-10-16T11:01:10;4.63;;;1.07;;
30247;SDS011;17063;50.892;4.702;2022-10-16T11:07:03;2.20;;;0.97;;
30247;SDS011;17063;50.892;4.702;2022-10-16T11:09:25;2.27;;;0.83;;
30247;SDS011;17063;50.892;4.702;2022-10-16T11:12:01;3.37;;;0.93;;
30247;SDS011;17063;50.892;4.702;2022-10-16T11:14:34;4.00;;;1.10;;
30247;SDS011;17063;50.892;4.702;2022-10-16T11:17:19;2.50;;;1.00;;
30247;SDS011;17063;50.892;4.702;2022-10-16T11:22:40;4.37;;;1.40;;
30247;SDS011;17063;50.892;4.702;2022-10-16T11:25:13;3.37;;;0.90;;
30247;SDS011;17063;50.892;4.702;2022-10-16T11:30:30;2.90;;;0.90;;
30247;SDS011;17063;50.892;4.702;2022-10-16T11:33:04;3.90;;;0.80;;
30247;SDS011;17063;50.892;4.702;2022-10-16T11:41:10;1.60;;;0.80;;
30247;SDS011;17063;50.892;4.702;2022-10-16T11:43:50;4.90;;;0.97;;
30247;SDS011;17063;50.892;4.702;2022-10-16T11:46:33;5.53;;;1.67;;
30247;SDS011;17063;50.892;4.702;2022-10-16T11:49:22;2.50;;;0.87;;
30247;SDS011;17063;50.892;4.702;2022-10-16T11:54:49;2.37;;;1.67;;
30247;SDS011;17063;50.892;4.702;2022-10-16T11:57:19;7.23;;;1.70;;
30247;SDS011;17063;50.892;4.702;2022-10-16T11:59:58;5.03;;;1.10;;
30247;SDS011;17063;50.892;4.702;2022-10-16T12:08:13;2.80;;;0.60;;
30247;SDS011;17063;50.892;4.702;2022-10-16T12:10:42;3.70;;;1.00;;
30247;SDS011;17063;50.892;4.702;2022-10-16T12:13:29;3.50;;;0.77;;
30247;SDS011;17063;50.892;4.702;2022-10-16T12:16:19;2.57;;;0.87;;
30247;SDS011;17063;50.892;4.702;2022-10-16T12:18:48;2.97;;;0.97;;
30247;SDS011;17063;50.892;4.702;2022-10-16T12:21:30;6.63;;;0.80;;
30247;SDS011;17063;50.892;4.702;2022-10-16T12:23:58;2.33;;;1.00;;
30247;SDS011;17063;50.892;4.702;2022-10-16T12:26:26;4.10;;;1.20;;
30247;SDS011;17063;50.892;4.702;2022-10-16T12:28:54;3.33;;;0.80;;
30247;SDS011;17063;50.892;4.702;2022-10-16T12:31:25;2.20;;;0.93;;
30247;SDS011;17063;50.892;4.702;2022-10-16T12:37:09;2.97;;;0.87;;
30247;SDS011;17063;50.892;4.702;2022-10-16T12:39:47;2.77;;;0.93;;
30247;SDS011;17063;50.892;4.702;2022-10-16T12:42:33;2.00;;;0.70;;
30247;SDS011;17063;50.892;4.702;2022-10-16T12:45:01;4.90;;;0.97;;
30247;SDS011;17063;50.892;4.702;2022-10-16T12:50:01;2.37;;;0.80;;
30247;SDS011;17063;50.892;4.702;2022-10-16T12:52:37;3.43;;;1.10;;
30247;SDS011;17063;50.892;4.702;2022-10-16T12:55:05;2.63;;;1.00;;
30247;SDS011;17063;50.892;4.702;2022-10-16T13:05:41;1.77;;;0.93;;
30247;SDS011;17063;50.892;4.702;2022-10-16T13:11:35;2.67;;;0.77;;
30247;SDS011;17063;50.892;4.702;2022-10-16T13:23:16;3.13;;;1.00;;
30247;SDS011;17063;50.892;4.702;2022-10-16T13:28:28;2.30;;;0.90;;
30247;SDS011;17063;50.892;4.702;2022-10-16T13:30:58;6.80;;;0.90;;
30247;SDS011;17063;50.892;4.702;2022-10-16T13:33:33;4.60;;;1.03;;
30247;SDS011;17063;50.892;4.702;2022-10-16T13:36:04;2.97;;;0.90;;
30247;SDS011;17063;50.892;4.702;2022-10-16T13:38:36;3.67;;;1.07;;
30247;SDS011;17063;50.892;4.702;2022-10-16T13:41:12;3.33;;;1.03;;
30247;SDS011;17063;50.892;4.702;2022-10-16T13:46:13;4.20;;;1.10;;
30247;SDS011;17063;50.892;4.702;2022-10-16T13:48:41;2.47;;;1.00;;
30247;SDS011;17063;50.892;4.702;2022-10-16T13:51:13;2.30;;;1.00;;
30247;SDS011;17063;50.892;4.702;2022-10-16T13:53:41;4.53;;;1.00;;
30247;SDS011;17063;50.892;4.702;2022-10-16T13:56:12;5.37;;;0.93;;
30247;SDS011;17063;50.892;4.702;2022-10-16T13:58:41;3.77;;;1.10;;
30247;SDS011;17063;50.892;4.702;2022-10-16T14:01:18;7.23;;;1.10;;
30247;SDS011;17063;50.892;4.702;2022-10-16T14:03:47;4.97;;;1.30;;
30247;SDS011;17063;50.892;4.702;2022-10-16T14:06:15;4.43;;;1.30;;
30247;SDS011;17063;50.892;4.702;2022-10-16T14:08:45;8.57;;;1.57;;
30247;SDS011;17063;50.892;4.702;2022-10-16T14:11:24;3.70;;;1.10;;
30247;SDS011;17063;50.892;4.702;2022-10-16T14:13:51;3.47;;;1.37;;
30247;SDS011;17063;50.892;4.702;2022-10-16T14:16:22;5.50;;;1.47;;
30247;SDS011;17063;50.892;4.702;2022-10-16T14:19:02;3.47;;;1.20;;
30247;SDS011;17063;50.892;4.702;2022-10-16T14:21:31;2.90;;;1.00;;
30247;SDS011;17063;50.892;4.702;2022-10-16T14:23:59;2.33;;;0.90;;
30247;SDS011;17063;50.892;4.702;2022-10-16T14:26:42;5.40;;;1.10;;
30247;SDS011;17063;50.892;4.702;2022-10-16T14:29:19;4.50;;;1.20;;
30247;SDS011;17063;50.892;4.702;2022-10-16T14:34:23;3.10;;;0.83;;
30247;SDS011;17063;50.892;4.702;2022-10-16T14:36:51;4.37;;;0.90;;
30247;SDS011;17063;50.892;4.702;2022-10-16T14:39:19;4.03;;;1.10;;
30247;SDS011;17063;50.892;4.702;2022-10-16T14:41:48;1.80;;;0.80;;
30247;SDS011;17063;50.892;4.702;2022-10-16T14:44:19;1.67;;;0.83;;
30247;SDS011;17063;50.892;4.702;2022-10-16T14:46:48;5.80;;;0.80;;
30247;SDS011;17063;50.892;4.702;2022-10-16T14:49:16;1.77;;;0.87;;
30247;SDS011;17063;50.892;4.702;2022-10-16T14:51:45;3.70;;;1.03;;
30247;SDS011;17063;50.892;4.702;2022-10-16T14:54:13;3.00;;;1.23;;
30247;SDS011;17063;50.892;4.702;2022-10-16T14:56:54;1.73;;;1.10;;
30247;SDS011;17063;50.892;4.702;2022-10-16T14:59:30;3.90;;;1.70;;
30247;SDS011;17063;50.892;4.702;2022-10-16T15:02:02;3.80;;;1.50;;
30247;SDS011;17063;50.892;4.702;2022-10-16T15:05:17;3.57;;;1.10;;
30247;SDS011;17063;50.892;4.702;2022-10-16T15:08:02;5.30;;;1.10;;
30247;SDS011;17063;50.892;4.702;2022-10-16T15:10:31;6.03;;;1.40;;
30247;SDS011;17063;50.892;4.702;2022-10-16T15:12:59;1.73;;;0.83;;
30247;SDS011;17063;50.892;4.702;2022-10-16T15:15:33;5.77;;;1.20;;
30247;SDS011;17063;50.892;4.702;2022-10-16T15:18:02;2.10;;;1.00;;
30247;SDS011;17063;50.892;4.702;2022-10-16T15:20:30;1.97;;;0.90;;
30247;SDS011;17063;50.892;4.702;2022-10-16T15:23:01;6.03;;;1.07;;
30247;SDS011;17063;50.892;4.702;2022-10-16T15:25:30;2.80;;;1.10;;
30247;SDS011;17063;50.892;4.702;2022-10-16T15:27:59;4.30;;;1.30;;
30247;SDS011;17063;50.892;4.702;2022-10-16T15:30:27;3.13;;;1.50;;
30247;SDS011;17063;50.892;4.702;2022-10-16T15:32:54;5.13;;;1.23;;
30247;SDS011;17063;50.892;4.702;2022-10-16T15:35:20;2.90;;;1.30;;
30247;SDS011;17063;50.892;4.702;2022-10-16T15:37:47;1.63;;;1.10;;
30247;SDS011;17063;50.892;4.702;2022-10-16T15:40:15;2.63;;;1.00;;
30247;SDS011;17063;50.892;4.702;2022-10-16T15:42:43;1.47;;;1.13;;
30247;SDS011;17063;50.892;4.702;2022-10-16T15:45:11;3.67;;;1.10;;
30247;SDS011;17063;50.892;4.702;2022-10-16T15:47:40;1.70;;;0.80;;
30247;SDS011;17063;50.892;4.702;2022-10-16T15:50:11;2.47;;;0.90;;
30247;SDS011;17063;50.892;4.702;2022-10-16T15:52:39;2.13;;;1.00;;
30247;SDS011;17063;50.892;4.702;2022-10-16T15:55:07;1.30;;;0.93;;
30247;SDS011;17063;50.892;4.702;2022-10-16T15:57:35;1.13;;;0.83;;
30247;SDS011;17063;50.892;4.702;2022-10-16T16:00:07;3.33;;;1.20;;
30247;SDS011;17063;50.892;4.702;2022-10-16T16:02:40;3.40;;;1.03;;
30247;SDS011;17063;50.892;4.702;2022-10-16T16:05:08;6.60;;;1.60;;
30247;SDS011;17063;50.892;4.702;2022-10-16T16:07:37;4.53;;;1.27;;
30247;SDS011;17063;50.892;4.702;2022-10-16T16:10:05;3.67;;;1.10;;
30247;SDS011;17063;50.892;4.702;2022-10-16T16:12:34;2.53;;;1.13;;
30247;SDS011;17063;50.892;4.702;2022-10-16T16:15:01;2.23;;;1.23;;
30247;SDS011;17063;50.892;4.702;2022-10-16T16:17:31;4.37;;;2.70;;
30247;SDS011;17063;50.892;4.702;2022-10-16T16:19:59;5.53;;;3.27;;
30247;SDS011;17063;50.892;4.702;2022-10-16T16:22:26;3.70;;;1.80;;
30247;SDS011;17063;50.892;4.702;2022-10-16T16:24:54;2.33;;;1.40;;
30247;SDS011;17063;50.892;4.702;2022-10-16T16:27:20;2.67;;;1.33;;
30247;SDS011;17063;50.892;4.702;2022-10-16T16:29:47;3.33;;;1.47;;
30247;SDS011;17063;50.892;4.702;2022-10-16T16:32:14;4.50;;;1.63;;
30247;SDS011;17063;50.892;4.702;2022-10-16T16:34:41;4.60;;;1.40;;
30247;SDS011;17063;50.892;4.702;2022-10-16T16:37:08;5.20;;;2.00;;
30247;SDS011;17063;50.892;4.702;2022-10-16T16:39:34;3.77;;;1.73;;
30247;SDS011;17063;50.892;4.702;2022-10-16T16:42:01;3.83;;;1.63;;
30247;SDS011;17063;50.892;4.702;2022-10-16T16:44:30;3.80;;;1.60;;
30247;SDS011;17063;50.892;4.702;2022-10-16T16:46:57;8.00;;;1.80;;
30247;SDS011;17063;50.892;4.702;2022-10-16T16:49:23;3.23;;;1.90;;
30247;SDS011;17063;50.892;4.702;2022-10-16T16:51:51;4.10;;;2.20;;
30247;SDS011;17063;50.892;4.702;2022-10-16T16:54:19;5.03;;;2.03;;
30247;SDS011;17063;50.892;4.702;2022-10-16T16:56:46;3.83;;;1.80;;
30247;SDS011;17063;50.892;4.702;2022-10-16T16:59:14;3.10;;;1.50;;
30247;SDS011;17063;50.892;4.702;2022-10-16T17:01:43;4.07;;;1.70;;
30247;SDS011;17063;50.892;4.702;2022-10-16T17:04:11;4.80;;;2.17;;
30247;SDS011;17063;50.892;4.702;2022-10-16T17:06:41;1.73;;;1.40;;
30247;SDS011;17063;50.892;4.702;2022-10-16T17:09:08;4.33;;;1.53;;
30247;SDS011;17063;50.892;4.702;2022-10-16T17:11:36;3.30;;;1.50;;
30247;SDS011;17063;50.892;4.702;2022-10-16T17:14:03;2.27;;;1.40;;
30247;SDS011;17063;50.892;4.702;2022-10-16T17:16:30;3.67;;;1.53;;
30247;SDS011;17063;50.892;4.702;2022-10-16T17:18:59;2.80;;;1.60;;
30247;SDS011;17063;50.892;4.702;2022-10-16T17:21:30;6.20;;;1.83;;
30247;SDS011;17063;50.892;4.702;2022-10-16T17:23:58;7.07;;;2.00;;